createdAt,value
2023-02-26T00:01:34.180Z,101431.31
2023-02-26T00:04:02.769Z,101432.66
2023-02-26T00:06:33.091Z,101450.94
2023-02-26T00:09:00.427Z,101454.44
2023-02-26T00:11:36.783Z,101448.25
2023-02-26T00:14:03.853Z,101456.84
2023-02-26T00:16:45.116Z,101450.94
2023-02-26T00:19:12.999Z,101456.06
2023-02-26T00:21:40.350Z,101457.66
2023-02-26T00:24:08.326Z,101458.19
2023-02-26T00:26:42.803Z,101449.03
2023-02-26T00:29:10.632Z,101454.72
2023-02-26T00:31:40.235Z,101457.94
2023-02-26T00:34:12.275Z,101468.41
2023-02-26T00:36:45.558Z,101466.25
2023-02-26T00:39:36.673Z,101461.69
2023-02-26T00:42:04.061Z,101459.00
2023-02-26T00:44:31.339Z,101460.59
2023-02-26T00:47:10.297Z,101463.28
2023-02-26T00:50:04.164Z,101467.34
2023-02-26T00:52:48.630Z,101468.66
2023-02-26T00:55:15.684Z,101467.03
2023-02-26T00:57:44.614Z,101470.56
2023-02-26T01:00:12.937Z,101459.00
2023-02-26T01:02:40.940Z,101469.47
2023-02-26T01:05:09.296Z,101469.47
2023-02-26T01:07:54.667Z,101466.50
2023-02-26T01:10:23.510Z,101471.09
2023-02-26T01:12:51.494Z,101472.72
2023-02-26T01:15:21.979Z,101478.34
2023-02-26T01:17:58.750Z,101483.44
2023-02-26T01:20:30.374Z,101486.38
2023-02-26T01:23:08.713Z,101481.78
2023-02-26T01:25:59.984Z,101489.34
2023-02-26T01:28:27.841Z,101493.34
2023-02-26T01:31:02.396Z,101488.81
2023-02-26T01:33:39.671Z,101498.47
2023-02-26T01:36:16.750Z,101490.66
2023-02-26T01:39:05.144Z,101485.56
2023-02-26T01:42:14.702Z,101486.88
2023-02-26T01:45:19.228Z,101487.69
2023-02-26T01:47:50.101Z,101487.69
2023-02-26T01:50:22.045Z,101481.25
2023-02-26T01:52:53.074Z,101483.88
2023-02-26T01:55:26.704Z,101487.63
2023-02-26T01:57:59.735Z,101501.41
2023-02-26T02:00:28.199Z,101491.97
2023-02-26T02:03:07.973Z,101499.25
2023-02-26T02:05:44.083Z,101501.13
2023-02-26T02:08:13.034Z,101507.38
2023-02-26T02:10:46.113Z,101512.47
2023-02-26T02:13:52.183Z,101510.03
2023-02-26T02:16:42.421Z,101503.81
2023-02-26T02:19:41.587Z,101506.53
2023-02-26T02:22:17.806Z,101510.22
2023-02-26T02:24:53.726Z,101506.19
2023-02-26T02:27:47.055Z,101513.09
2023-02-26T02:30:37.959Z,101512.34
2023-02-26T02:33:11.865Z,101510.19
2023-02-26T02:35:45.978Z,101518.72
2023-02-26T02:38:24.084Z,101515.88
2023-02-26T02:40:59.956Z,101513.16
2023-02-26T02:43:30.355Z,101518.25
2023-02-26T02:46:06.042Z,101526.34
2023-02-26T02:48:36.140Z,101536.13
2023-02-26T02:51:11.913Z,101532.47
2023-02-26T02:53:45.048Z,101531.94
2023-02-26T02:56:24.629Z,101539.44
2023-02-26T02:58:56.343Z,101536.50
2023-02-26T03:01:26.753Z,101546.41
2023-02-26T03:04:23.047Z,101552.84
2023-02-26T03:06:50.392Z,101550.97
2023-02-26T03:09:19.074Z,101549.66
2023-02-26T03:11:47.256Z,101557.97
2023-02-26T03:14:15.544Z,101562.47
2023-02-26T03:16:51.351Z,101557.91
2023-02-26T03:19:49.517Z,101557.13
2023-02-26T03:22:32.751Z,101548.44
2023-02-26T03:25:11.934Z,101547.91
2023-02-26T03:28:06.094Z,101554.88
2023-02-26T03:30:47.737Z,101562.97
2023-02-26T03:33:20.533Z,101566.53
2023-02-26T03:35:55.992Z,101573.16
2023-02-26T03:38:37.844Z,101574.50
2023-02-26T03:41:09.358Z,101574.91
2023-02-26T03:43:39.697Z,101565.16
2023-02-26T03:46:12.845Z,101582.16
2023-02-26T03:48:39.822Z,101591.53
2023-02-26T03:51:10.857Z,101593.41
2023-02-26T03:53:53.714Z,101594.53
2023-02-26T03:56:33.710Z,101596.81
2023-02-26T03:59:19.476Z,101595.19
2023-02-26T04:01:51.819Z,101600.06
2023-02-26T04:04:26.842Z,101605.91
2023-02-26T04:06:54.522Z,101604.91
2023-02-26T04:09:21.781Z,101615.66
2023-02-26T04:11:49.891Z,101607.47
2023-02-26T04:14:16.741Z,101625.34
2023-02-26T04:16:44.871Z,101620.63
2023-02-26T04:19:12.108Z,101624.41
2023-02-26T04:21:39.094Z,101626.09
2023-02-26T04:24:06.413Z,101631.28
2023-02-26T04:26:34.731Z,101635.66
2023-02-26T04:29:02.796Z,101637.19
2023-02-26T04:31:30.328Z,101648.13
2023-02-26T04:33:57.480Z,101635.81
2023-02-26T04:36:24.725Z,101644.06
2023-02-26T04:38:51.678Z,101645.50
2023-02-26T04:41:18.797Z,101649.06
2023-02-26T04:43:48.209Z,101650.72
2023-02-26T04:46:27.952Z,101654.03
2023-02-26T04:48:55.267Z,101647.88
2023-02-26T04:51:22.284Z,101648.06
2023-02-26T04:53:51.026Z,101660.84
2023-02-26T04:56:18.418Z,101651.31
2023-02-26T04:58:45.855Z,101663.66
2023-02-26T05:01:17.785Z,101672.63
2023-02-26T05:03:45.487Z,101666.59
2023-02-26T05:06:12.412Z,101672.19
2023-02-26T05:08:42.334Z,101673.00
2023-02-26T05:11:10.841Z,101676.69
2023-02-26T05:13:37.796Z,101674.59
2023-02-26T05:16:05.744Z,101672.53
2023-02-26T05:18:32.590Z,101667.97
2023-02-26T05:21:00.563Z,101684.81
2023-02-26T05:23:27.603Z,101678.25
2023-02-26T05:25:58.606Z,101680.00
2023-02-26T05:28:26.729Z,101688.81
2023-02-26T05:30:54.104Z,101689.03
2023-02-26T05:33:21.148Z,101694.34
2023-02-26T05:35:49.118Z,101697.78
2023-02-26T05:38:16.155Z,101702.81
2023-02-26T05:40:43.464Z,101706.75
2023-02-26T05:43:10.233Z,101707.59
2023-02-26T05:45:38.296Z,101716.91
2023-02-26T05:48:05.466Z,101719.09
2023-02-26T05:50:32.291Z,101713.34
2023-02-26T05:52:59.081Z,101724.59
2023-02-26T05:55:26.227Z,101726.38
2023-02-26T05:57:53.162Z,101725.19
2023-02-26T06:00:21.211Z,101734.59
2023-02-26T06:02:48.155Z,101740.56
2023-02-26T06:05:15.126Z,101744.25
2023-02-26T06:07:42.227Z,101745.03
2023-02-26T06:10:10.354Z,101748.31
2023-02-26T06:12:37.165Z,101756.50
2023-02-26T06:15:05.280Z,101763.53
2023-02-26T06:17:33.142Z,101753.97
2023-02-26T06:20:00.182Z,101762.28
2023-02-26T06:22:27.353Z,101761.81
2023-02-26T06:24:55.691Z,101768.31
2023-02-26T06:27:23.346Z,101767.31
2023-02-26T06:29:50.117Z,101770.75
2023-02-26T06:32:17.115Z,101771.53
2023-02-26T06:34:43.934Z,101782.81
2023-02-26T06:37:11.490Z,101791.78
2023-02-26T06:39:38.337Z,101775.19
2023-02-26T06:42:05.305Z,101790.72
2023-02-26T06:44:32.765Z,101788.31
2023-02-26T06:46:59.481Z,101790.41
2023-02-26T06:49:26.617Z,101801.03
2023-02-26T06:51:53.265Z,101809.38
2023-02-26T06:54:20.012Z,101808.78
2023-02-26T06:56:48.457Z,101817.56
2023-02-26T06:59:15.486Z,101815.94
2023-02-26T07:01:42.620Z,101815.97
2023-02-26T07:04:12.268Z,101809.53
2023-02-26T07:06:48.244Z,101818.19
2023-02-26T07:09:15.138Z,101831.56
2023-02-26T07:11:41.806Z,101822.34
2023-02-26T07:14:11.257Z,101830.00
2023-02-26T07:16:37.942Z,101838.50
2023-02-26T07:19:04.757Z,101844.38
2023-02-26T07:21:31.517Z,101843.97
2023-02-26T07:23:58.466Z,101852.00
2023-02-26T07:26:27.993Z,101843.38
2023-02-26T07:28:55.078Z,101853.53
2023-02-26T07:31:22.059Z,101853.78
2023-02-26T07:33:49.032Z,101864.75
2023-02-26T07:36:15.851Z,101873.34
2023-02-26T07:38:42.720Z,101876.69
2023-02-26T07:41:10.365Z,101870.78
2023-02-26T07:43:37.121Z,101871.75
2023-02-26T07:46:04.706Z,101888.19
2023-02-26T07:48:31.873Z,101879.59
2023-02-26T07:50:58.672Z,101886.53
2023-02-26T07:53:25.424Z,101891.88
2023-02-26T07:55:52.287Z,101893.06
2023-02-26T07:58:19.231Z,101899.09
2023-02-26T08:00:46.127Z,101898.00
2023-02-26T08:03:12.922Z,101893.75
2023-02-26T08:05:39.619Z,101906.75
2023-02-26T08:08:06.637Z,101899.69
2023-02-26T08:10:33.574Z,101900.53
2023-02-26T08:13:00.317Z,101914.00
2023-02-26T08:15:27.251Z,101885.97
2023-02-26T08:17:54.454Z,101892.44
2023-02-26T08:20:21.285Z,101894.59
2023-02-26T08:22:48.442Z,101896.88
2023-02-26T08:25:15.335Z,101907.22
2023-02-26T08:27:42.585Z,101917.94
2023-02-26T08:30:10.358Z,101908.44
2023-02-26T08:32:37.398Z,101917.31
2023-02-26T08:35:04.346Z,101913.38
2023-02-26T08:37:31.173Z,101918.38
2023-02-26T08:40:00.456Z,101929.34
2023-02-26T08:42:27.280Z,101923.38
2023-02-26T08:44:53.971Z,101937.56
2023-02-26T08:47:28.393Z,101946.47
2023-02-26T08:49:55.689Z,101938.09
2023-02-26T08:52:23.412Z,101940.41
2023-02-26T08:54:53.858Z,101942.91
2023-02-26T08:57:20.992Z,101948.25
2023-02-26T08:59:47.670Z,101961.84
2023-02-26T09:02:14.971Z,101965.47
2023-02-26T09:04:44.546Z,101968.09
2023-02-26T09:07:12.044Z,101964.81
2023-02-26T09:09:38.857Z,101974.69
2023-02-26T09:12:05.987Z,101969.22
2023-02-26T09:14:32.976Z,101973.59
2023-02-26T09:16:59.811Z,101988.66
2023-02-26T09:19:27.256Z,101977.69
2023-02-26T09:21:54.152Z,101981.47
2023-02-26T09:24:21.118Z,101979.66
2023-02-26T09:26:47.959Z,101991.75
2023-02-26T09:29:15.362Z,101993.41
2023-02-26T09:31:42.473Z,102007.34
2023-02-26T09:34:11.400Z,102000.53
2023-02-26T09:36:38.948Z,101998.53
2023-02-26T09:39:06.524Z,101989.97
2023-02-26T09:41:39.097Z,101996.25
2023-02-26T09:44:23.658Z,102000.97
2023-02-26T09:47:04.748Z,102007.50
2023-02-26T09:49:50.210Z,102021.28
2023-02-26T09:52:28.416Z,102012.09
2023-02-26T09:55:25.035Z,102015.34
2023-02-26T09:57:53.911Z,102018.34
2023-02-26T10:00:39.652Z,102033.53
2023-02-26T10:03:44.017Z,102027.63
2023-02-26T10:06:29.676Z,102029.66
2023-02-26T10:08:59.491Z,102034.53
2023-02-26T10:11:34.691Z,102022.94
2023-02-26T10:14:16.574Z,102047.25
2023-02-26T10:16:48.572Z,102037.72
2023-02-26T10:19:18.888Z,102038.28
2023-02-26T10:21:52.592Z,102040.91
2023-02-26T10:24:27.113Z,102064.38
2023-02-26T10:27:18.619Z,102046.91
2023-02-26T10:29:51.390Z,102069.34
2023-02-26T10:32:37.605Z,102058.56
2023-02-26T10:35:10.447Z,102048.75
2023-02-26T10:37:51.356Z,102057.53
2023-02-26T10:40:55.797Z,102064.72
2023-02-26T10:43:24.977Z,102074.72
2023-02-26T10:46:03.650Z,102062.00
2023-02-26T10:49:14.632Z,102059.47
2023-02-26T10:51:42.022Z,102070.56
2023-02-26T10:54:28.435Z,102087.00
2023-02-26T10:56:55.503Z,102074.00
2023-02-26T10:59:22.567Z,102079.91
2023-02-26T11:01:52.585Z,102071.88
2023-02-26T11:04:23.562Z,102076.41
2023-02-26T11:07:10.683Z,102085.78
2023-02-26T11:09:41.436Z,102085.16
2023-02-26T11:12:11.326Z,102087.50
2023-02-26T11:14:38.818Z,102099.28
2023-02-26T11:17:23.167Z,102100.81
2023-02-26T11:19:54.126Z,102091.44
2023-02-26T11:22:21.860Z,102093.56
2023-02-26T11:24:52.228Z,102096.59
2023-02-26T11:27:29.075Z,102085.19
2023-02-26T11:30:05.983Z,102086.28
2023-02-26T11:32:34.840Z,102082.91
2023-02-26T11:35:01.806Z,102090.28
2023-02-26T11:37:35.622Z,102090.94
2023-02-26T11:40:19.283Z,102099.56
2023-02-26T11:42:53.769Z,102104.97
2023-02-26T11:45:27.156Z,102078.84
2023-02-26T11:48:02.475Z,102089.72
2023-02-26T11:50:30.757Z,102087.03
2023-02-26T11:53:11.053Z,102084.78
2023-02-26T11:55:47.095Z,102086.59
2023-02-26T11:58:25.627Z,102094.34
2023-02-26T12:00:57.980Z,102082.34
2023-02-26T12:03:29.245Z,102083.25
2023-02-26T12:05:58.042Z,102086.34
2023-02-26T12:08:39.877Z,102083.25
2023-02-26T12:11:37.762Z,102096.75
2023-02-26T12:14:32.779Z,102090.78
2023-02-26T12:17:21.369Z,102086.59
2023-02-26T12:20:15.211Z,102083.91
2023-02-26T12:22:45.113Z,102087.75
2023-02-26T12:25:49.684Z,102084.06
2023-02-26T12:28:34.368Z,102074.44
2023-02-26T12:31:26.263Z,102078.66
2023-02-26T12:34:12.178Z,102076.41
2023-02-26T12:36:48.407Z,102081.47
2023-02-26T12:39:53.313Z,102084.28
2023-02-26T12:42:26.646Z,102091.66
2023-02-26T12:45:28.286Z,102097.19
2023-02-26T12:48:16.341Z,102083.22
2023-02-26T12:50:58.561Z,102085.34
2023-02-26T12:53:28.508Z,102091.69
2023-02-26T12:56:28.201Z,102075.38
2023-02-26T12:59:20.562Z,102093.84
2023-02-26T13:02:05.858Z,102075.88
2023-02-26T13:04:51.210Z,102091.91
2023-02-26T13:07:27.291Z,102087.19
2023-02-26T13:10:01.948Z,102093.84
2023-02-26T13:12:37.129Z,102095.84
2023-02-26T13:15:16.055Z,102085.56
2023-02-26T13:17:48.307Z,102084.50
2023-02-26T13:20:22.014Z,102077.63
2023-02-26T13:22:53.410Z,102091.84
2023-02-26T13:25:28.035Z,102080.44
2023-02-26T13:27:57.485Z,102080.25
2023-02-26T13:30:35.044Z,102084.28
2023-02-26T13:33:03.140Z,102076.16
2023-02-26T13:35:48.747Z,102075.59
2023-02-26T13:38:30.767Z,102068.72
2023-02-26T13:41:19.868Z,102074.53
2023-02-26T13:44:13.050Z,102072.47
2023-02-26T13:46:52.634Z,102066.31
2023-02-26T13:49:34.840Z,102060.09
2023-02-26T13:52:01.699Z,102071.81
2023-02-26T13:54:35.152Z,102066.09
2023-02-26T13:57:25.901Z,102071.59
2023-02-26T14:00:00.584Z,102059.34
2023-02-26T14:02:36.888Z,102062.81
2023-02-26T14:05:11.441Z,102065.75
2023-02-26T14:07:57.728Z,102061.44
2023-02-26T14:10:43.440Z,102067.25
2023-02-26T14:13:42.618Z,102066.19
2023-02-26T14:16:23.972Z,102060.94
2023-02-26T14:18:52.590Z,102061.69
2023-02-26T14:21:25.844Z,102068.41
2023-02-26T14:24:19.702Z,102080.31
2023-02-26T14:26:50.200Z,102078.69
2023-02-26T14:29:16.893Z,102085.28
2023-02-26T14:32:06.140Z,102078.88
2023-02-26T14:34:37.142Z,102092.28
2023-02-26T14:37:07.917Z,102079.41
2023-02-26T14:39:40.578Z,102084.75
2023-02-26T14:42:25.128Z,102077.38
2023-02-26T14:44:58.137Z,102076.97
2023-02-26T14:47:27.681Z,102076.47
2023-02-26T14:49:59.610Z,102078.00
2023-02-26T14:52:32.571Z,102083.56
2023-02-26T14:55:21.431Z,102083.00
2023-02-26T14:57:58.671Z,102079.25
2023-02-26T15:00:43.142Z,102084.00
2023-02-26T15:03:23.942Z,102082.50
2023-02-26T15:06:27.847Z,102074.06
2023-02-26T15:09:42.475Z,102085.94
2023-02-26T15:12:34.385Z,102101.78
2023-02-26T15:15:22.678Z,102085.50
2023-02-26T15:17:56.111Z,102093.03
2023-02-26T15:20:36.919Z,102086.03
2023-02-26T15:23:17.571Z,102086.25
2023-02-26T15:25:46.915Z,102082.66
2023-02-26T15:28:37.786Z,102089.34
2023-02-26T15:31:07.042Z,102096.84
2023-02-26T15:33:34.481Z,102093.41
2023-02-26T15:36:06.576Z,102084.03
2023-02-26T15:38:48.581Z,102086.47
2023-02-26T15:41:16.480Z,102097.91
2023-02-26T15:43:49.526Z,102102.25
2023-02-26T15:46:16.650Z,102099.47
2023-02-26T15:48:44.477Z,102100.28
2023-02-26T15:51:16.182Z,102096.44
2023-02-26T15:53:45.854Z,102102.75
2023-02-26T15:56:19.649Z,102096.06
2023-02-26T15:58:50.981Z,102108.31
2023-02-26T16:01:19.978Z,102098.31
2023-02-26T16:03:47.841Z,102106.53
2023-02-26T16:06:21.079Z,102102.84
2023-02-26T16:08:47.789Z,102109.50
2023-02-26T16:11:15.696Z,102101.34
2023-02-26T16:13:43.670Z,102104.38
2023-02-26T16:16:39.703Z,102116.44
2023-02-26T16:19:06.591Z,102114.50
2023-02-26T16:21:38.871Z,102104.03
2023-02-26T16:24:07.654Z,102123.31
2023-02-26T16:26:37.634Z,102112.03
2023-02-26T16:29:14.304Z,102111.00
2023-02-26T16:31:41.873Z,102109.34
2023-02-26T16:34:45.396Z,102123.75
2023-02-26T16:37:18.075Z,102119.38
2023-02-26T16:39:45.811Z,102116.94
2023-02-26T16:42:20.648Z,102107.94
2023-02-26T16:44:49.056Z,102124.69
2023-02-26T16:47:16.288Z,102128.09
2023-02-26T16:49:44.398Z,102127.00
2023-02-26T16:52:20.646Z,102131.75
2023-02-26T16:55:00.473Z,102125.78
2023-02-26T16:57:35.993Z,102131.59
2023-02-26T17:00:09.561Z,102120.47
2023-02-26T17:02:37.686Z,102128.44
2023-02-26T17:05:25.471Z,102138.72
2023-02-26T17:08:16.681Z,102130.22
2023-02-26T17:10:55.110Z,102141.09
2023-02-26T17:13:28.478Z,102134.81
2023-02-26T17:15:59.292Z,102139.75
2023-02-26T17:18:26.200Z,102141.16
2023-02-26T17:20:53.340Z,102138.91
2023-02-26T17:23:22.639Z,102143.47
2023-02-26T17:25:53.922Z,102147.03
2023-02-26T17:28:24.211Z,102152.50
2023-02-26T17:30:51.956Z,102148.28
2023-02-26T17:33:19.574Z,102158.31
2023-02-26T17:35:46.739Z,102162.31
2023-02-26T17:38:14.454Z,102169.22
2023-02-26T17:40:42.929Z,102176.69
2023-02-26T17:43:10.234Z,102172.78
2023-02-26T17:45:39.231Z,102179.06
2023-02-26T17:48:06.575Z,102182.06
2023-02-26T17:50:47.177Z,102178.00
2023-02-26T17:53:15.422Z,102187.44
2023-02-26T17:55:42.624Z,102184.03
2023-02-26T17:58:18.484Z,102194.03
2023-02-26T18:00:49.987Z,102191.22
2023-02-26T18:03:17.092Z,102204.78
2023-02-26T18:05:43.876Z,102206.94
2023-02-26T18:08:24.099Z,102216.44
2023-02-26T18:10:51.569Z,102214.41
2023-02-26T18:13:19.072Z,102213.19
2023-02-26T18:15:45.914Z,102219.19
2023-02-26T18:18:13.866Z,102214.84
2023-02-26T18:20:44.165Z,102219.41
2023-02-26T18:23:17.835Z,102213.91
2023-02-26T18:25:47.904Z,102216.31
2023-02-26T18:28:20.934Z,102220.47
2023-02-26T18:30:48.232Z,102218.66
2023-02-26T18:33:17.146Z,102210.97
2023-02-26T18:35:50.113Z,102216.97
2023-02-26T18:38:18.848Z,102224.72
2023-02-26T18:40:46.185Z,102223.00
2023-02-26T18:43:13.271Z,102219.13
2023-02-26T18:45:44.630Z,102213.75
2023-02-26T18:48:17.322Z,102215.16
2023-02-26T18:50:45.202Z,102224.44
2023-02-26T18:53:12.920Z,102219.91
2023-02-26T18:55:39.698Z,102223.72
2023-02-26T18:58:06.454Z,102220.44
2023-02-26T19:00:33.821Z,102216.41
2023-02-26T19:03:01.238Z,102215.59
2023-02-26T19:05:28.185Z,102225.28
2023-02-26T19:07:54.998Z,102225.94
2023-02-26T19:10:22.803Z,102222.84
2023-02-26T19:12:50.937Z,102219.09
2023-02-26T19:15:18.352Z,102223.13
2023-02-26T19:17:46.219Z,102231.59
2023-02-26T19:20:13.916Z,102223.56
2023-02-26T19:22:41.934Z,102234.66
2023-02-26T19:25:09.533Z,102227.31
2023-02-26T19:27:36.854Z,102230.75
2023-02-26T19:30:04.740Z,102242.00
2023-02-26T19:32:31.773Z,102243.47
2023-02-26T19:34:58.804Z,102237.19
2023-02-26T19:37:25.629Z,102241.56
2023-02-26T19:39:52.326Z,102234.75
2023-02-26T19:42:20.960Z,102233.44
2023-02-26T19:44:47.749Z,102240.44
2023-02-26T19:47:14.488Z,102242.94
2023-02-26T19:49:41.191Z,102245.13
2023-02-26T19:52:08.640Z,102247.72
2023-02-26T19:54:35.684Z,102247.66
2023-02-26T19:57:02.379Z,102256.81
2023-02-26T19:59:29.271Z,102254.75
2023-02-26T20:01:56.091Z,102254.44
2023-02-26T20:04:22.841Z,102255.88
2023-02-26T20:06:49.487Z,102256.41
2023-02-26T20:09:17.442Z,102266.59
2023-02-26T20:11:48.082Z,102267.56
2023-02-26T20:14:15.353Z,102270.66
2023-02-26T20:16:47.395Z,102274.03
2023-02-26T20:19:14.643Z,102280.41
2023-02-26T20:21:41.800Z,102291.75
2023-02-26T20:24:08.866Z,102292.91
2023-02-26T20:26:35.710Z,102289.03
2023-02-26T20:29:02.445Z,102291.16
2023-02-26T20:31:30.640Z,102297.47
2023-02-26T20:33:58.852Z,102298.16
2023-02-26T20:36:25.878Z,102301.47
2023-02-26T20:38:52.667Z,102306.19
2023-02-26T20:41:19.581Z,102305.63
2023-02-26T20:43:46.340Z,102305.56
2023-02-26T20:46:13.429Z,102309.16
2023-02-26T20:48:41.885Z,102312.25
2023-02-26T20:51:09.978Z,102317.25
2023-02-26T20:53:36.865Z,102309.47
2023-02-26T20:56:03.953Z,102311.03
2023-02-26T20:58:30.953Z,102306.16
2023-02-26T21:00:58.021Z,102312.00
2023-02-26T21:03:25.361Z,102308.66
2023-02-26T21:05:52.401Z,102315.25
2023-02-26T21:08:19.555Z,102315.75
2023-02-26T21:10:46.284Z,102326.50
2023-02-26T21:13:13.328Z,102327.09
2023-02-26T21:15:40.426Z,102325.63
2023-02-26T21:18:07.184Z,102318.19
2023-02-26T21:20:34.164Z,102316.78
2023-02-26T21:23:01.311Z,102321.78
2023-02-26T21:25:31.373Z,102328.28
2023-02-26T21:27:58.621Z,102320.97
2023-02-26T21:30:25.465Z,102332.09
2023-02-26T21:32:52.475Z,102324.47
2023-02-26T21:35:19.688Z,102329.28
2023-02-26T21:37:46.935Z,102335.53
2023-02-26T21:40:15.400Z,102328.53
2023-02-26T21:42:43.286Z,102325.31
2023-02-26T21:45:10.747Z,102325.09
2023-02-26T21:47:37.708Z,102331.38
2023-02-26T21:50:06.049Z,102331.25
2023-02-26T21:52:34.545Z,102325.78
2023-02-26T21:55:01.280Z,102331.63
2023-02-26T21:57:27.946Z,102335.56
2023-02-26T21:59:54.819Z,102330.75
2023-02-26T22:02:21.613Z,102338.97
2023-02-26T22:04:48.565Z,102332.38
2023-02-26T22:07:15.832Z,102345.22
2023-02-26T22:09:46.269Z,102331.16
2023-02-26T22:12:14.938Z,102340.63
2023-02-26T22:14:41.884Z,102336.41
2023-02-26T22:17:08.895Z,102339.28
2023-02-26T22:19:36.178Z,102342.44
2023-02-26T22:22:03.036Z,102340.53
2023-02-26T22:24:30.025Z,102337.34
2023-02-26T22:26:56.781Z,102339.97
2023-02-26T22:29:23.626Z,102338.03
2023-02-26T22:31:51.030Z,102334.94
2023-02-26T22:34:20.115Z,102342.34
2023-02-26T22:36:46.832Z,102344.69
2023-02-26T22:39:14.449Z,102348.59
2023-02-26T22:41:41.371Z,102351.22
2023-02-26T22:44:08.178Z,102346.28
2023-02-26T22:46:35.070Z,102348.72
2023-02-26T22:49:01.819Z,102349.47
2023-02-26T22:51:29.977Z,102351.47
2023-02-26T22:53:56.954Z,102357.34
2023-02-26T22:56:24.350Z,102349.06
2023-02-26T22:58:51.391Z,102358.38
2023-02-26T23:01:19.250Z,102357.28
2023-02-26T23:03:46.435Z,102357.06
2023-02-26T23:06:13.750Z,102348.78
2023-02-26T23:08:40.657Z,102353.72
2023-02-26T23:11:07.947Z,102355.53
2023-02-26T23:13:35.582Z,102347.09
2023-02-26T23:16:04.051Z,102348.75
2023-02-26T23:18:32.199Z,102351.22
2023-02-26T23:20:59.027Z,102363.69
2023-02-26T23:23:25.822Z,102355.28
2023-02-26T23:25:53.098Z,102361.34
2023-02-26T23:28:19.979Z,102359.69
2023-02-26T23:30:46.772Z,102365.94
2023-02-26T23:33:13.983Z,102362.63
2023-02-26T23:35:41.093Z,102353.41
2023-02-26T23:38:08.072Z,102360.84
2023-02-26T23:40:35.208Z,102361.75
2023-02-26T23:43:02.593Z,102348.84
2023-02-26T23:45:29.638Z,102350.97
2023-02-26T23:47:56.359Z,102364.50
2023-02-26T23:50:23.512Z,102351.06
2023-02-26T23:52:50.483Z,102364.72
2023-02-26T23:55:17.526Z,102371.75
2023-02-26T23:57:44.809Z,102370.81
